Time;durP1;ratioP1;P1;durP2;ratioP2;P2;SDS_P1;SDS_P2;PMS_P1;PMS_P2;Temp;Humidity;BMP_temperature;BMP_pressure;BME280_temperature;BME280_humidity;BME280_pressure;Samples;Min_cycle;Max_cycle;Signal;HPM_P1;HPM_P2
2022/05/04 00:00:43;;;;;;;10.23;3.90;;;;;;;8.20;81.09;102064.75;5093257;28;20364;-56
2022/05/04 00:03:09;;;;;;;10.35;3.78;;;;;;;8.18;81.72;102077.09;5093861;28;20028;-55
2022/05/04 00:05:35;;;;;;;11.23;3.60;;;;;;;8.21;81.88;102074.44;5092431;28;20024;-55
2022/05/04 00:08:00;;;;;;;12.07;3.95;;;;;;;8.20;81.57;102063.00;5092228;28;20040;-56
2022/05/04 00:10:27;;;;;;;11.90;4.45;;;;;;;8.22;81.02;102067.38;5092582;28;20024;-55
2022/05/04 00:12:52;;;;;;;12.25;4.30;;;;;;;8.20;81.04;102068.25;5092979;28;20449;-56
2022/05/04 00:15:17;;;;;;;13.10;4.05;;;;;;;8.24;81.34;102062.97;5092689;28;20031;-53
2022/05/04 00:17:42;;;;;;;10.80;3.70;;;;;;;8.24;81.27;102074.38;5092457;28;20483;-56
2022/05/04 00:20:09;;;;;;;11.35;3.67;;;;;;;8.25;80.67;102077.88;5093333;28;20032;-56
2022/05/04 00:22:34;;;;;;;9.40;3.95;;;;;;;8.25;80.76;102070.84;5076299;28;20032;-56
2022/05/04 00:25:00;;;;;;;9.35;3.95;;;;;;;8.25;81.20;102068.22;5092953;28;20069;-56
2022/05/04 00:27:25;;;;;;;9.93;4.13;;;;;;;8.27;81.82;102065.53;5074242;28;20115;-56
2022/05/04 00:29:50;;;;;;;11.32;4.32;;;;;;;8.26;81.22;102056.75;5074797;28;20118;-57
2022/05/04 00:32:19;;;;;;;13.02;4.40;;;;;;;8.23;79.58;102061.22;5074599;28;20507;-57
2022/05/04 00:34:45;;;;;;;12.05;4.30;;;;;;;8.20;80.04;102064.75;5093590;28;20502;-54
2022/05/04 00:37:10;;;;;;;11.30;3.70;;;;;;;8.20;79.96;102059.50;5057622;28;20056;-55
2022/05/04 00:39:36;;;;;;;10.95;4.15;;;;;;;8.18;79.53;102059.53;5092565;28;20028;-56
2022/05/04 00:42:28;;;;;;;10.25;3.70;;;;;;;8.22;80.78;102062.09;5092517;28;20028;-56
2022/05/04 00:44:53;;;;;;;12.38;3.95;;;;;;;8.25;80.86;102062.03;5071630;28;20051;-54
2022/05/04 00:47:19;;;;;;;7.68;3.95;;;;;;;8.24;80.60;102061.19;5074154;28;20036;-54
2022/05/04 00:49:46;;;;;;;11.52;3.90;;;;;;;8.27;81.20;102061.13;5092176;28;20028;-54
2022/05/04 00:52:13;;;;;;;11.75;4.35;;;;;;;8.26;80.91;102064.69;5092529;28;20035;-55
2022/05/04 00:54:42;;;;;;;9.73;4.18;;;;;;;8.24;81.31;102057.69;5093626;28;20032;-54
2022/05/04 00:57:07;;;;;;;10.05;4.30;;;;;;;8.22;81.62;102052.41;5092281;28;20027;-55
2022/05/04 00:59:36;;;;;;;9.57;4.82;;;;;;;8.19;81.78;102055.09;5092024;28;20028;-56
2022/05/04 01:02:01;;;;;;;9.25;4.35;;;;;;;8.18;81.84;102056.00;5092498;28;20106;-55
2022/05/04 01:04:27;;;;;;;10.93;4.38;;;;;;;8.18;81.60;102056.88;5075348;28;20110;-55
2022/05/04 01:06:52;;;;;;;11.05;4.10;;;;;;;8.17;81.52;102056.88;5091835;28;20028;-56
2022/05/04 01:09:18;;;;;;;10.80;3.90;;;;;;;8.18;81.65;102056.88;5091950;28;20035;-56
2022/05/04 01:11:43;;;;;;;9.38;4.28;;;;;;;8.18;82.06;102051.59;5091769;28;20085;-56
2022/05/04 01:14:14;;;;;;;12.38;4.20;;;;;;;8.17;82.49;102051.59;5091821;28;20467;-53
2022/05/04 01:16:42;;;;;;;8.52;4.22;;;;;;;8.09;81.57;102053.50;5092757;28;20036;-55
2022/05/04 01:19:08;;;;;;;10.60;4.75;;;;;;;8.02;82.08;102055.38;5091958;28;20016;-55
2022/05/04 01:21:34;;;;;;;8.25;4.28;;;;;;;7.95;82.03;102049.28;5057483;28;20028;-57
2022/05/04 01:24:00;;;;;;;10.15;4.47;;;;;;;7.90;82.22;102053.75;5073855;28;20027;-56
2022/05/04 01:26:26;;;;;;;11.43;4.30;;;;;;;7.86;82.25;102050.31;5074730;28;20426;-54
2022/05/04 01:28:51;;;;;;;10.48;4.40;;;;;;;7.84;82.74;102059.13;5091664;28;20076;-56
2022/05/04 01:31:17;;;;;;;9.15;4.25;;;;;;;7.82;83.70;102048.59;5091739;28;20024;-56
2022/05/04 01:33:42;;;;;;;10.25;4.07;;;;;;;7.76;83.57;102042.53;5091866;28;20502;-55
2022/05/04 01:36:07;;;;;;;11.68;4.95;;;;;;;7.68;84.07;102035.59;5092787;28;20570;-55
2022/05/04 01:38:34;;;;;;;10.95;4.80;;;;;;;7.60;84.27;102042.75;5091481;28;20024;-56
2022/05/04 01:40:59;;;;;;;10.07;4.40;;;;;;;7.54;84.71;102042.81;5091140;28;20032;-55
2022/05/04 01:43:25;;;;;;;9.35;4.53;;;;;;;7.46;85.02;102052.59;5073229;28;20036;-55
2022/05/04 01:45:50;;;;;;;13.18;4.70;;;;;;;7.40;85.11;102044.75;5091681;28;20083;-54
2022/05/04 01:48:16;;;;;;;10.73;4.63;;;;;;;7.32;85.10;102043.06;5092550;28;20035;-54
2022/05/04 01:50:41;;;;;;;7.00;4.18;;;;;;;7.23;85.79;102045.81;5091387;28;20035;-54
2022/05/04 01:53:07;;;;;;;11.50;4.78;;;;;;;7.16;85.95;102036.22;5073692;28;20062;-56
2022/05/04 01:55:33;;;;;;;11.85;4.97;;;;;;;7.05;86.39;102039.88;5091559;28;20474;-54
2022/05/04 01:57:58;;;;;;;8.63;4.43;;;;;;;6.99;87.03;102033.78;5092566;28;20725;-56
2022/05/04 02:00:24;;;;;;;10.20;4.93;;;;;;;6.93;87.28;102045.28;5092241;28;20479;-56
2022/05/04 02:02:50;;;;;;;11.52;4.63;;;;;;;6.89;87.63;102039.16;5091453;28;20036;-51
2022/05/04 02:05:16;;;;;;;7.82;4.47;;;;;;;6.83;87.92;102044.50;5091535;28;20379;-55
2022/05/04 02:07:43;;;;;;;10.02;5.22;;;;;;;6.77;88.19;102041.06;5092543;28;20035;-56
2022/05/04 02:10:10;;;;;;;10.00;4.53;;;;;;;6.68;89.11;102040.22;5073425;28;20035;-53
2022/05/04 02:12:36;;;;;;;12.05;4.75;;;;;;;6.57;90.21;102031.56;5071684;28;20082;-54
2022/05/04 02:15:03;;;;;;;11.25;5.07;;;;;;;6.47;90.62;102025.53;5071373;28;20021;-52
2022/05/04 02:17:29;;;;;;;14.38;4.65;;;;;;;6.38;91.19;102028.22;5071092;28;20036;-54
2022/05/04 02:19:54;;;;;;;9.10;4.68;;;;;;;6.32;91.96;102033.56;5093113;28;20391;-54
2022/05/04 02:22:19;;;;;;;10.68;4.95;;;;;;;6.25;91.88;102035.31;5077023;28;20032;-54
2022/05/04 02:24:45;;;;;;;12.80;4.85;;;;;;;6.18;92.29;102025.75;5094835;28;20390;-53
2022/05/04 02:27:10;;;;;;;10.52;4.60;;;;;;;6.12;92.86;102028.44;5095219;28;20028;-53
2022/05/04 02:29:35;;;;;;;11.73;5.10;;;;;;;6.06;93.85;102022.34;5078118;28;20039;-52
2022/05/04 02:32:01;;;;;;;10.82;4.60;;;;;;;6.02;93.56;102017.09;5095047;28;20028;-53
2022/05/04 02:34:26;;;;;;;13.32;5.25;;;;;;;5.96;94.92;102017.09;5076809;28;20016;-53
2022/05/04 02:39:35;;;;;;;14.07;5.72;;;;;;;5.85;95.85;102019.81;5080935;28;20450;-56
2022/05/04 02:42:01;;;;;;;10.18;5.18;;;;;;;5.80;95.77;102014.56;5060012;28;20110;-51
2022/05/04 02:44:26;;;;;;;12.10;5.03;;;;;;;5.76;96.31;102026.00;5094585;28;20117;-54
2022/05/04 02:46:52;;;;;;;10.30;5.05;;;;;;;5.71;96.25;102026.00;5095093;28;20030;-56
2022/05/04 02:49:18;;;;;;;12.15;5.10;;;;;;;5.70;96.49;102023.38;5076664;28;20723;-55
2022/05/04 02:51:44;;;;;;;13.82;5.18;;;;;;;5.68;95.76;102019.91;5095585;28;20024;-54
2022/05/04 02:54:09;;;;;;;11.02;5.35;;;;;;;5.64;97.13;102018.16;5094935;28;20379;-55
2022/05/04 02:56:34;;;;;;;14.48;5.30;;;;;;;5.59;97.67;102020.84;5095016;28;20065;-52
2022/05/04 02:59:00;;;;;;;9.23;4.90;;;;;;;5.56;97.39;102012.94;5094440;28;20028;-54
2022/05/04 03:04:09;;;;;;;14.85;5.63;;;;;;;5.49;97.36;102019.13;5078932;28;20147;-55
2022/05/04 03:06:36;;;;;;;15.48;5.47;;;;;;;5.45;97.66;102017.38;5094225;28;20107;-54
2022/05/04 03:09:04;;;;;;;10.77;5.50;;;;;;;5.42;97.50;102018.25;5076082;28;20026;-53
2022/05/04 03:14:13;;;;;;;13.55;5.53;;;;;;;5.36;97.71;102015.69;5094119;28;20034;-55
2022/05/04 03:16:41;;;;;;;14.02;5.15;;;;;;;5.36;98.17;102020.94;5094264;28;20032;-56
2022/05/04 03:19:07;;;;;;;13.50;5.60;;;;;;;5.32;98.34;102016.56;5076111;28;20399;-57
2022/05/04 03:21:34;;;;;;;10.13;5.18;;;;;;;5.27;98.12;102013.06;5095351;28;20038;-54
2022/05/04 03:24:00;;;;;;;16.38;6.38;;;;;;;5.24;98.55;102009.59;5093708;28;20066;-55
2022/05/04 03:26:26;;;;;;;11.63;5.10;;;;;;;5.20;99.10;102006.97;5093787;28;20471;-56
2022/05/04 03:28:51;;;;;;;14.68;5.55;;;;;;;5.16;99.66;102011.38;5094006;28;20043;-57
2022/05/04 03:31:17;;;;;;;11.57;5.65;;;;;;;5.13;99.57;102003.50;5093817;28;20120;-54
2022/05/04 03:33:42;;;;;;;11.30;5.07;;;;;;;5.10;99.88;102006.13;5094805;28;20032;-57
2022/05/04 03:36:08;;;;;;;12.43;5.57;;;;;;;5.07;100.00;102004.38;5076089;28;20028;-56
2022/05/04 03:38:33;;;;;;;10.93;5.53;;;;;;;5.05;100.00;102000.00;5093597;28;20028;-56
2022/05/04 03:40:59;;;;;;;13.13;6.05;;;;;;;5.04;100.00;101995.66;5093883;28;20051;-56
2022/05/04 03:43:24;;;;;;;14.77;6.22;;;;;;;5.00;100.00;101994.81;5076747;28;20360;-54
2022/05/04 03:45:50;;;;;;;12.35;5.78;;;;;;;4.99;100.00;101994.81;5093352;28;20044;-57
2022/05/04 03:48:15;;;;;;;16.33;6.38;;;;;;;5.00;100.00;101991.28;5075502;28;20036;-56
2022/05/04 03:50:40;;;;;;;13.48;6.15;;;;;;;4.98;100.00;101991.28;5058950;28;20040;-54
2022/05/04 03:53:06;;;;;;;11.88;5.95;;;;;;;4.98;100.00;102001.78;5076926;28;20067;-54
2022/05/04 03:55:33;;;;;;;13.60;6.53;;;;;;;4.98;100.00;101995.69;5093419;28;20024;-57
2022/05/04 03:57:59;;;;;;;14.90;6.13;;;;;;;4.97;100.00;101997.41;5093618;28;20103;-55
2022/05/04 04:00:24;;;;;;;10.50;5.70;;;;;;;4.96;100.00;101992.19;5093346;28;20115;-56
2022/05/04 04:02:49;;;;;;;15.90;6.25;;;;;;;4.92;100.00;102002.69;5075390;28;20126;-54
2022/05/04 04:05:15;;;;;;;11.20;6.00;;;;;;;4.91;100.00;102000.06;5074377;28;20055;-55
2022/05/04 04:07:40;;;;;;;11.43;5.68;;;;;;;4.87;100.00;101995.69;5092243;28;20047;-56
2022/05/04 04:10:06;;;;;;;10.48;6.07;;;;;;;4.85;100.00;102000.94;5093164;28;20027;-53
2022/05/04 04:12:32;;;;;;;12.30;5.88;;;;;;;4.85;100.00;102003.56;5093052;28;20032;-55
2022/05/04 04:14:57;;;;;;;14.95;6.72;;;;;;;4.83;100.00;101992.19;5075889;28;20020;-53
2022/05/04 04:17:22;;;;;;;11.63;6.00;;;;;;;4.82;100.00;101997.47;5092600;28;20479;-57
2022/05/04 04:21:50;;;;;;;13.02;6.15;;;;;;;4.79;100.00;101995.72;5074657;28;20544;-54
2022/05/04 04:22:33;;;;;;;14.35;5.90;;;;;;;4.78;100.00;101993.97;5092965;28;20510;-51
2022/05/04 04:24:58;;;;;;;15.73;6.10;;;;;;;4.78;100.00;101995.72;5093982;28;20031;-53
2022/05/04 04:27:24;;;;;;;12.27;6.00;;;;;;;4.76;100.00;101996.59;5074550;28;20039;-53
2022/05/04 04:29:49;;;;;;;12.13;5.78;;;;;;;4.76;100.00;101998.34;5074514;28;20035;-53
2022/05/04 04:32:14;;;;;;;12.77;6.30;;;;;;;4.77;100.00;102000.09;5074763;28;20034;-55
2022/05/04 04:34:40;;;;;;;13.85;6.60;;;;;;;4.78;100.00;102004.47;5092975;28;20028;-55
2022/05/04 04:37:05;;;;;;;13.07;6.22;;;;;;;4.80;100.00;102005.34;5093957;28;20552;-53
2022/05/04 04:39:30;;;;;;;17.20;7.10;;;;;;;4.83;100.00;102010.56;5092475;28;20028;-57
2022/05/04 04:41:56;;;;;;;11.73;5.97;;;;;;;4.87;100.00;102014.06;5091698;28;20028;-55
2022/05/04 04:44:21;;;;;;;15.50;6.50;;;;;;;4.90;100.00;102014.06;5074206;28;20047;-51
2022/05/04 04:46:46;;;;;;;17.77;6.32;;;;;;;4.93;100.00;102016.69;5093415;28;20063;-56
2022/05/04 04:49:12;;;;;;;15.73;6.78;;;;;;;5.00;100.00;102010.56;5092247;28;20031;-56
2022/05/04 04:51:37;;;;;;;15.60;6.57;;;;;;;5.06;100.00;102007.91;5091281;28;20039;-57
2022/05/04 04:54:02;;;;;;;13.30;6.35;;;;;;;5.11;100.00;102017.53;5090972;28;20019;-57
2022/05/04 04:56:28;;;;;;;12.73;6.07;;;;;;;5.14;100.00;102010.50;5089342;28;20032;-55
2022/05/04 04:58:53;;;;;;;16.35;6.75;;;;;;;5.19;100.00;102008.75;5070752;28;20025;-53
2022/05/04 05:01:19;;;;;;;16.33;6.85;;;;;;;5.26;100.00;102009.59;5070362;28;20484;-56
2022/05/04 05:03:44;;;;;;;16.98;7.18;;;;;;;5.34;100.00;102012.19;5070690;28;20055;-54
2022/05/04 05:06:11;;;;;;;15.77;7.03;;;;;;;5.40;100.00;102009.53;5071845;28;20471;-55
2022/05/04 05:08:37;;;;;;;15.20;6.43;;;;;;;5.45;100.00;102012.13;5088797;28;20051;-57
2022/05/04 05:11:02;;;;;;;14.93;6.10;;;;;;;5.49;100.00;102017.38;5091173;28;20475;-53
2022/05/04 05:13:27;;;;;;;12.75;6.13;;;;;;;5.56;100.00;102020.81;5073507;28;20035;-56
2022/05/04 05:16:08;;;;;;;14.75;5.95;;;;;;;5.64;100.00;102021.69;5074036;28;20097;-56
2022/05/04 05:18:33;;;;;;;14.45;6.20;;;;;;;5.69;99.48;102021.63;5092015;28;20483;-56
2022/05/04 05:20:59;;;;;;;15.95;6.50;;;;;;;5.77;99.77;102026.84;5091340;28;20069;-53
2022/05/04 05:23:25;;;;;;;13.43;5.70;;;;;;;5.83;98.74;102019.81;5073786;28;20039;-55
2022/05/04 05:25:51;;;;;;;14.95;6.13;;;;;;;5.89;97.27;102019.75;5091798;28;20028;-55
2022/05/04 05:28:17;;;;;;;13.93;6.18;;;;;;;6.01;97.10;102024.13;5092292;28;20455;-56
2022/05/04 05:30:42;;;;;;;15.88;6.28;;;;;;;6.08;95.61;102014.41;5073786;28;20042;-56
2022/05/04 05:33:08;;;;;;;13.63;5.82;;;;;;;6.15;94.60;102015.25;5073859;28;20031;-55
2022/05/04 05:35:33;;;;;;;12.73;5.68;;;;;;;6.23;94.32;102016.06;5091744;28;20023;-54
2022/05/04 05:37:58;;;;;;;13.00;5.95;;;;;;;6.32;92.76;102017.75;5091123;28;20559;-54
2022/05/04 05:40:24;;;;;;;9.90;5.28;;;;;;;6.39;92.77;102007.19;5092357;28;20024;-56
2022/05/04 05:42:49;;;;;;;10.13;5.40;;;;;;;6.50;92.01;102008.84;5091723;28;20016;-56
2022/05/04 05:45:15;;;;;;;16.38;5.70;;;;;;;6.59;91.31;102014.00;5073568;28;20047;-56
2022/05/04 05:47:40;;;;;;;12.68;4.65;;;;;;;6.68;90.58;102019.19;5074020;28;20077;-52
2022/05/04 05:50:07;;;;;;;13.43;5.13;;;;;;;6.76;89.25;102015.59;5092534;28;20119;-54
2022/05/04 05:52:32;;;;;;;13.68;5.07;;;;;;;6.85;87.77;102020.78;5075935;28;20028;-57
2022/05/04 05:54:58;;;;;;;15.00;5.07;;;;;;;6.92;87.30;102011.94;5080106;28;20111;-55
2022/05/04 05:57:24;;;;;;;12.63;4.70;;;;;;;6.99;87.08;102010.94;5095373;28;20024;-56
2022/05/04 05:59:49;;;;;;;12.85;5.03;;;;;;;7.04;86.11;102019.69;5077865;28;20074;-56
2022/05/04 06:02:15;;;;;;;14.73;4.75;;;;;;;7.12;84.72;102011.69;5095575;28;20024;-55
2022/05/04 06:04:40;;;;;;;13.73;4.60;;;;;;;7.29;82.47;102008.88;5077553;28;20035;-57
2022/05/04 06:07:05;;;;;;;8.55;4.40;;;;;;;7.34;82.55;102017.59;5077777;28;20057;-57
2022/05/04 06:09:31;;;;;;;12.27;4.97;;;;;;;7.44;81.65;102015.69;5095183;28;20039;-58
2022/05/04 06:11:56;;;;;;;11.60;4.53;;;;;;;7.50;80.36;102017.41;5096095;28;20028;-55
2022/05/04 06:14:22;;;;;;;11.75;4.65;;;;;;;7.55;79.95;102016.44;5094629;28;20016;-55
2022/05/04 06:16:50;;;;;;;10.35;4.10;;;;;;;7.63;79.07;102010.19;5095306;28;20053;-55
2022/05/04 06:19:16;;;;;;;12.10;4.03;;;;;;;7.73;78.20;102019.72;5093949;28;20028;-56
2022/05/04 06:21:41;;;;;;;10.65;4.55;;;;;;;7.80;76.07;102013.47;5099312;28;20486;-56
2022/05/04 06:24:07;;;;;;;11.00;4.68;;;;;;;7.84;77.61;102012.53;5115198;28;20047;-56
2022/05/04 06:26:32;;;;;;;10.52;4.47;;;;;;;7.87;77.76;102016.88;5115521;28;20036;-56
2022/05/04 06:28:57;;;;;;;10.30;4.32;;;;;;;7.97;76.98;102013.22;5115472;28;20059;-57
2022/05/04 06:34:07;;;;;;;9.05;4.35;;;;;;;8.14;77.07;102026.13;5107507;28;20076;-57
2022/05/04 06:36:33;;;;;;;9.63;3.95;;;;;;;8.19;76.04;102023.44;5076659;28;20387;-57
2022/05/04 06:38:58;;;;;;;7.13;4.00;;;;;;;8.27;75.32;102020.69;5093373;28;20081;-57
2022/05/04 06:41:24;;;;;;;10.70;4.15;;;;;;;8.42;74.22;102017.78;5094215;28;20028;-56
2022/05/04 06:43:49;;;;;;;9.70;4.22;;;;;;;8.57;74.22;102021.06;5094228;28;20034;-55
2022/05/04 06:46:15;;;;;;;9.40;4.80;;;;;;;8.64;74.18;102023.59;5077245;28;20491;-57
2022/05/04 06:48:41;;;;;;;9.07;4.80;;;;;;;8.76;74.49;102019.88;5094598;28;20032;-57
2022/05/04 06:51:07;;;;;;;12.27;4.55;;;;;;;8.95;73.33;102025.69;5094451;28;20543;-58
2022/05/04 06:53:33;;;;;;;10.68;5.03;;;;;;;9.23;72.97;102025.13;5076159;28;20040;-56
2022/05/04 06:55:59;;;;;;;14.68;5.60;;;;;;;9.51;71.04;102027.19;5078725;28;20024;-56
2022/05/04 06:58:25;;;;;;;10.38;4.30;;;;;;;9.79;70.55;102022.16;5096416;28;20106;-57
2022/05/04 07:00:50;;;;;;;8.35;4.85;;;;;;;10.03;69.16;102022.53;5069632;28;20126;-56
2022/05/04 07:03:16;;;;;;;9.43;4.57;;;;;;;10.25;67.73;102035.25;5093829;28;20027;-57
2022/05/04 07:05:41;;;;;;;11.48;5.20;;;;;;;10.45;66.35;102032.16;5068781;28;20122;-57
2022/05/04 07:08:06;;;;;;;9.82;4.50;;;;;;;10.70;65.72;102035.00;5076828;28;20114;-57
2022/05/04 07:10:32;;;;;;;12.13;4.95;;;;;;;10.90;65.08;102034.50;5094046;28;20040;-55
2022/05/04 07:12:57;;;;;;;10.02;4.85;;;;;;;11.21;63.27;102027.47;5076193;28;20036;-54
2022/05/04 07:15:23;;;;;;;10.88;4.38;;;;;;;11.51;63.96;102030.13;5095125;28;20440;-57
2022/05/04 07:17:48;;;;;;;9.23;4.30;;;;;;;11.76;63.76;102022.31;5093729;28;20028;-56
2022/05/04 07:20:14;;;;;;;12.40;5.07;;;;;;;11.85;60.75;102029.13;5094348;28;20031;-57
2022/05/04 07:22:39;;;;;;;10.27;5.20;;;;;;;12.02;60.70;102020.66;5094054;28;20507;-57
2022/05/04 07:25:05;;;;;;;12.05;5.07;;;;;;;12.03;60.03;102028.56;5075902;28;20040;-57
2022/05/04 07:27:31;;;;;;;10.30;4.78;;;;;;;12.06;59.44;102020.50;5075918;28;20036;-57
2022/05/04 07:29:56;;;;;;;8.82;4.90;;;;;;;11.75;61.38;102021.47;5081384;28;20042;-55
2022/05/04 07:32:21;;;;;;;13.25;4.88;;;;;;;11.75;60.55;102016.16;5083668;28;20032;-54
2022/05/04 07:34:47;;;;;;;12.45;5.20;;;;;;;11.68;60.88;102019.03;5109769;28;20027;-56
2022/05/04 07:37:12;;;;;;;10.25;5.35;;;;;;;11.38;61.45;102019.03;5083475;28;20036;-57
2022/05/04 07:42:24;;;;;;;15.15;6.60;;;;;;;10.94;63.96;102019.38;5093613;28;20502;-57
2022/05/04 07:45:12;;;;;;;11.15;6.20;;;;;;;10.94;65.72;102020.22;5088841;28;20040;-55
2022/05/04 07:47:38;;;;;;;12.85;5.82;;;;;;;10.91;66.67;102022.97;5072054;28;20036;-56
2022/05/04 07:50:07;;;;;;;9.60;5.40;;;;;;;10.87;66.97;102025.75;5071208;28;20048;-55
2022/05/04 07:52:33;;;;;;;9.45;5.28;;;;;;;10.89;67.38;102027.44;5069007;28;20051;-55
2022/05/04 07:54:59;;;;;;;12.75;5.30;;;;;;;10.96;67.06;102025.53;5073251;28;20017;-55
2022/05/04 07:57:25;;;;;;;12.65;6.00;;;;;;;11.03;67.48;102021.75;5068529;28;20055;-57
2022/05/04 08:05:23;;;;;;;9.85;4.68;;;;;;;11.05;66.74;102027.03;5079870;28;20109;-57
2022/05/04 08:07:48;;;;;;;9.40;4.43;;;;;;;11.04;67.03;102023.50;5072794;28;20468;-57
2022/05/04 08:10:13;;;;;;;10.00;4.88;;;;;;;11.31;66.31;102021.00;5071693;28;20119;-58
2022/05/04 08:12:39;;;;;;;13.48;5.50;;;;;;;11.46;66.10;102020.53;5071815;28;20029;-57
2022/05/04 08:15:06;;;;;;;11.43;5.05;;;;;;;11.33;65.73;102032.44;5055369;28;20020;-56
2022/05/04 08:17:31;;;;;;;11.95;5.00;;;;;;;11.54;65.53;102027.41;5072360;28;20411;-57
2022/05/04 08:19:56;;;;;;;10.93;4.95;;;;;;;11.45;64.66;102033.84;5072467;28;20025;-57
2022/05/04 08:22:22;;;;;;;10.80;5.20;;;;;;;11.43;64.82;102025.94;5071930;28;20017;-57
2022/05/04 08:24:47;;;;;;;10.90;4.70;;;;;;;11.50;63.71;102023.13;5071930;28;20032;-57
2022/05/04 08:27:12;;;;;;;9.52;5.05;;;;;;;11.41;65.36;102029.56;5073456;28;20052;-57
2022/05/04 08:29:38;;;;;;;12.32;5.60;;;;;;;11.51;65.17;102028.38;5075067;28;20380;-57
2022/05/04 08:32:03;;;;;;;9.90;5.43;;;;;;;11.62;64.87;102025.38;5071653;28;20399;-57
2022/05/04 08:34:29;;;;;;;10.55;5.15;;;;;;;11.70;63.65;102036.66;5070876;28;20395;-56
2022/05/04 08:36:54;;;;;;;10.75;4.80;;;;;;;11.74;63.81;102038.28;5071891;28;20116;-52
2022/05/04 08:39:20;;;;;;;10.60;4.80;;;;;;;11.55;63.63;102030.00;5072177;28;20039;-55
2022/05/04 08:41:45;;;;;;;8.20;4.90;;;;;;;11.79;63.42;102025.75;5071823;28;20033;-55
2022/05/04 08:44:12;;;;;;;9.80;4.72;;;;;;;12.10;63.13;102027.47;5071945;28;20036;-54
2022/05/04 08:46:44;;;;;;;7.50;4.07;;;;;;;12.52;61.19;102026.09;5070740;28;20055;-56
2022/05/04 08:49:12;;;;;;;;;;;;;;;13.61;59.71;102020.44;5088645;28;20032;-56
2022/05/04 08:51:38;;;;;;;11.52;5.00;;;;;;;14.85;52.59;102031.41;5077883;28;19971;-57
2022/05/04 08:54:05;;;;;;;9.57;4.75;;;;;;;14.85;51.22;102029.56;5071741;28;20031;-57
2022/05/04 08:56:31;;;;;;;12.23;5.60;;;;;;;15.27;48.42;102024.19;5070449;28;20036;-57
2022/05/04 08:58:56;;;;;;;11.93;5.05;;;;;;;15.53;47.44;102026.50;5071549;28;20025;-56
2022/05/04 09:01:24;;;;;;;10.18;4.65;;;;;;;15.70;46.88;102022.19;5071853;28;20029;-55
2022/05/04 09:03:50;;;;;;;8.45;4.25;;;;;;;15.08;48.72;102025.88;5069893;28;20032;-56
2022/05/04 09:06:32;;;;;;;12.35;4.63;;;;;;;15.27;50.32;102022.41;5071254;28;20033;-57
2022/05/04 09:09:03;;;;;;;;;;;;;;;16.41;45.74;102025.91;5071366;28;20032;-57
2022/05/04 09:11:29;;;;;;;9.97;4.23;;;;;;;17.38;44.09;102018.19;5050966;28;20279;-57
2022/05/04 09:13:55;;;;;;;7.85;4.10;;;;;;;18.06;41.49;102014.41;5057251;28;20017;-55
2022/05/04 09:16:28;;;;;;;10.38;4.30;;;;;;;17.61;40.76;102029.41;5070670;28;20051;-57
2022/05/04 09:18:54;;;;;;;13.30;4.63;;;;;;;17.24;42.26;102023.41;5072424;28;20027;-56
2022/05/04 09:21:21;;;;;;;9.10;4.25;;;;;;;18.09;40.73;102014.22;5071324;28;20510;-58
2022/05/04 09:23:50;;;;;;;10.55;5.53;;;;;;;17.37;42.13;102008.41;5069782;28;20446;-57
2022/05/04 09:26:15;;;;;;;10.68;4.82;;;;;;;17.61;43.48;102011.53;5069947;28;20036;-57
2022/05/04 09:28:40;;;;;;;8.93;4.72;;;;;;;18.39;41.24;102009.81;5069218;28;20032;-57
2022/05/04 09:31:07;;;;;;;8.32;4.80;;;;;;;19.05;39.98;102005.00;5075390;28;20028;-56
2022/05/04 09:33:37;;;;;;;12.20;5.20;;;;;;;19.43;39.08;102002.56;5069513;28;20024;-55
2022/05/04 09:36:03;;;;;;;7.57;4.25;;;;;;;20.68;36.02;101993.44;5070644;28;20054;-57
2022/05/04 09:46:51;;;;;;;8.82;4.60;;;;;;;19.29;36.62;101994.53;5071232;28;20124;-55
2022/05/04 09:49:20;;;;;;;11.10;5.10;;;;;;;17.68;40.08;101991.47;5070948;28;20043;-56
2022/05/04 09:51:51;;;;;;;9.55;5.13;;;;;;;17.00;41.49;101989.00;5070879;28;20090;-57
2022/05/04 09:54:27;;;;;;;10.97;5.27;;;;;;;16.78;43.81;101987.44;5070633;28;20016;-56
2022/05/04 09:56:58;;;;;;;9.43;5.30;;;;;;;16.90;42.70;101993.94;5071176;28;20686;-57
2022/05/04 09:59:31;;;;;;;10.63;5.20;;;;;;;17.47;40.67;101996.25;5070924;28;20039;-57
2022/05/04 10:01:59;;;;;;;9.20;4.80;;;;;;;18.86;39.62;101998.03;5066977;28;20024;-54
2022/05/04 10:04:25;;;;;;;10.43;5.38;;;;;;;20.09;36.02;102000.13;5070572;28;20476;-57
2022/05/04 10:06:52;;;;;;;8.60;4.65;;;;;;;19.64;36.47;101989.59;5070137;28;20436;-57
2022/05/04 10:09:18;;;;;;;11.13;5.25;;;;;;;20.03;35.80;101988.91;5053310;28;20430;-57
2022/05/04 10:11:44;;;;;;;8.65;5.40;;;;;;;19.16;37.39;101989.94;5070389;28;20054;-57
2022/05/04 10:14:13;;;;;;;12.77;5.22;;;;;;;19.71;38.38;101983.81;5070929;28;20484;-56
2022/05/04 10:16:51;;;;;;;9.50;5.07;;;;;;;20.74;34.20;101976.91;5071059;28;20412;-55
2022/05/04 10:19:30;;;;;;;11.10;5.05;;;;;;;19.74;34.95;101980.91;5069649;28;20048;-57
2022/05/04 10:21:59;;;;;;;10.73;5.38;;;;;;;18.43;38.24;101984.56;5070154;28;20063;-55
2022/05/04 10:24:35;;;;;;;9.75;4.85;;;;;;;18.44;40.10;101986.28;5070677;28;20480;-58
2022/05/04 10:27:19;;;;;;;8.93;5.10;;;;;;;19.58;37.16;101987.28;5070917;28;20056;-57
2022/05/04 10:32:58;;;;;;;9.07;4.63;;;;;;;21.54;33.79;101974.84;5070784;28;20051;-56
2022/05/04 10:35:41;;;;;;;9.85;5.82;;;;;;;21.72;32.24;101967.25;5070200;28;20017;-58
2022/05/04 10:38:18;;;;;;;11.45;5.60;;;;;;;22.31;32.73;101963.69;5071232;28;20028;-58
2022/05/04 10:41:10;;;;;;;11.52;5.40;;;;;;;22.29;31.94;101967.50;5073051;28;20073;-57
2022/05/04 10:43:50;;;;;;;11.50;5.72;;;;;;;22.14;31.08;101964.16;5063397;28;20040;-56
2022/05/04 10:46:19;;;;;;;10.23;5.20;;;;;;;20.99;32.48;101969.78;5072826;28;20032;-57
2022/05/04 10:48:50;;;;;;;9.38;5.22;;;;;;;20.67;33.97;101978.25;5074370;28;20112;-56
2022/05/04 10:51:21;;;;;;;9.77;5.55;;;;;;;20.84;33.64;101970.88;5056533;28;20032;-56
2022/05/04 10:53:58;;;;;;;14.23;6.28;;;;;;;20.08;36.63;101970.66;5053093;28;20172;-57
2022/05/04 10:56:28;;;;;;;12.15;5.93;;;;;;;20.18;35.85;101968.19;5066078;28;20031;-55
2022/05/04 10:58:59;;;;;;;11.45;6.00;;;;;;;20.52;35.76;101952.44;5074065;28;20028;-56
2022/05/04 11:01:27;;;;;;;10.23;5.05;;;;;;;21.39;33.58;101953.41;5074407;28;20031;-56
2022/05/04 11:04:07;;;;;;;9.00;5.65;;;;;;;21.27;34.59;101965.13;5082360;28;20024;-56
2022/05/04 11:06:33;;;;;;;11.13;5.90;;;;;;;21.05;33.93;101963.97;5064594;28;20432;-54
2022/05/04 11:09:13;;;;;;;11.80;5.80;;;;;;;21.25;31.73;101957.16;5075184;28;20020;-58
2022/05/04 11:11:42;;;;;;;9.07;5.18;;;;;;;20.69;35.23;101953.94;5074001;28;20101;-56
2022/05/04 11:14:09;;;;;;;12.27;5.90;;;;;;;21.22;32.69;101972.66;5073657;28;20024;-56
2022/05/04 11:16:35;;;;;;;11.43;5.55;;;;;;;20.81;34.27;101961.19;5073971;28;20028;-57
2022/05/04 11:19:02;;;;;;;12.45;5.47;;;;;;;20.45;36.79;101952.84;5072712;28;20544;-57
2022/05/04 11:21:29;;;;;;;9.07;5.65;;;;;;;20.97;34.68;101960.94;5052516;28;20048;-55
2022/05/04 11:23:57;;;;;;;10.00;5.15;;;;;;;21.83;35.24;101959.22;5073494;28;20024;-55
2022/05/04 11:26:27;;;;;;;9.50;4.80;;;;;;;22.20;33.42;101963.66;5073134;28;20059;-55
2022/05/04 11:28:53;;;;;;;10.48;5.07;;;;;;;21.51;33.41;101956.19;5073184;28;20033;-56
2022/05/04 11:31:20;;;;;;;7.72;4.90;;;;;;;21.06;35.26;101965.69;5073654;28;20107;-54
2022/05/04 11:33:48;;;;;;;9.00;4.28;;;;;;;21.07;34.69;101958.47;5084324;28;20032;-56
2022/05/04 11:36:16;;;;;;;9.70;5.13;;;;;;;21.11;34.54;101950.06;5077511;28;20025;-53
2022/05/04 11:38:45;;;;;;;8.68;4.63;;;;;;;21.55;33.88;101952.34;5079145;28;20027;-51
2022/05/04 11:41:11;;;;;;;11.40;5.25;;;;;;;21.24;34.19;101954.53;5093775;28;20138;-49
2022/05/04 11:43:37;;;;;;;10.85;5.10;;;;;;;21.80;33.83;101947.81;5081746;28;20111;-52
2022/05/04 11:46:09;;;;;;;11.57;5.20;;;;;;;21.71;33.33;101947.50;5087349;28;20112;-50
2022/05/04 11:48:42;;;;;;;10.35;4.95;;;;;;;21.51;33.53;101953.50;5093625;28;20063;-52
2022/05/04 11:51:08;;;;;;;11.13;5.07;;;;;;;21.67;34.34;101948.72;5094430;28;20024;-50
2022/05/04 11:53:34;;;;;;;9.27;4.65;;;;;;;21.96;33.55;101951.06;5093628;28;20038;-54